createdAt,value
2017-05-14T00:00:16.738Z,55.88
2017-05-14T00:02:46.328Z,60.52
2017-05-14T00:05:17.049Z,54.18
2017-05-14T00:07:46.094Z,54.62
2017-05-14T00:10:15.942Z,56.88
2017-05-14T00:12:45.010Z,60.24
2017-05-14T00:15:14.834Z,59.12
2017-05-14T00:17:43.880Z,58.36
2017-05-14T00:20:13.035Z,69.86
2017-05-14T00:22:42.112Z,59.82
2017-05-14T00:25:11.898Z,61.70
2017-05-14T00:27:40.969Z,58.74
2017-05-14T00:30:10.134Z,59.26
2017-05-14T00:32:39.217Z,55.72
2017-05-14T00:35:09.059Z,58.54
2017-05-14T00:37:38.230Z,54.38
2017-05-14T00:40:08.034Z,62.64
2017-05-14T00:42:37.848Z,63.40
2017-05-14T00:45:07.658Z,60.58
2017-05-14T00:47:36.756Z,63.86
2017-05-14T00:50:06.551Z,65.84
2017-05-14T00:52:35.619Z,59.40
2017-05-14T00:55:04.719Z,59.62
2017-05-14T00:57:33.785Z,61.26
2017-05-14T01:00:02.838Z,61.08
2017-05-14T01:02:31.926Z,59.34
2017-05-14T01:05:00.973Z,59.12
2017-05-14T01:07:30.143Z,58.74
2017-05-14T01:09:59.958Z,63.40
2017-05-14T01:12:29.767Z,63.66
2017-05-14T01:14:59.591Z,61.40
2017-05-14T01:17:29.506Z,65.54
2017-05-14T01:19:59.285Z,63.62
2017-05-14T01:22:28.358Z,65.58
2017-05-14T01:24:57.396Z,66.10
2017-05-14T01:27:27.326Z,61.20
2017-05-14T01:29:57.116Z,63.00
2017-05-14T01:32:26.175Z,60.96
2017-05-14T01:34:55.231Z,60.42
2017-05-14T01:37:24.316Z,58.82
2017-05-14T01:39:54.099Z,65.54
2017-05-14T01:42:23.214Z,61.40
2017-05-14T01:44:53.014Z,56.06
2017-05-14T01:47:22.143Z,61.32
2017-05-14T01:49:51.190Z,70.12
2017-05-14T01:52:20.322Z,68.96
2017-05-14T01:54:50.133Z,67.44
2017-05-14T01:57:19.959Z,67.30
2017-05-14T01:59:49.769Z,62.38
2017-05-14T02:02:19.565Z,67.22
2017-05-14T02:04:49.403Z,66.46
2017-05-14T02:07:18.441Z,70.56
2017-05-14T02:09:47.501Z,68.40
2017-05-14T02:12:16.549Z,65.04
2017-05-14T02:14:45.623Z,60.28
2017-05-14T02:17:14.663Z,67.86
2017-05-14T02:19:44.573Z,72.42
2017-05-14T02:22:13.830Z,70.00
2017-05-14T02:24:43.513Z,72.58
2017-05-14T02:27:13.188Z,70.26
2017-05-14T02:29:43.039Z,63.62
2017-05-14T02:32:12.104Z,65.40
2017-05-14T02:34:41.919Z,66.96
2017-05-14T02:37:11.705Z,63.76
2017-05-14T02:39:40.767Z,78.94
2017-05-14T02:42:09.913Z,83.86
2017-05-14T02:44:38.983Z,81.36
2017-05-14T02:47:08.033Z,82.78
2017-05-14T02:49:37.119Z,78.86
2017-05-14T02:52:06.930Z,73.96
2017-05-14T02:54:36.742Z,73.40
2017-05-14T02:57:06.549Z,76.56
2017-05-14T02:59:36.364Z,73.24
2017-05-14T03:02:06.151Z,73.64
2017-05-14T03:04:35.267Z,67.30
2017-05-14T03:07:05.085Z,64.56
2017-05-14T03:09:34.992Z,64.50
2017-05-14T03:12:04.035Z,62.14
2017-05-14T03:14:33.201Z,61.58
2017-05-14T03:17:02.997Z,65.72
2017-05-14T03:19:32.809Z,59.84
2017-05-14T03:22:02.612Z,64.86
2017-05-14T03:24:31.665Z,63.44
2017-05-14T03:27:00.728Z,67.70
2017-05-14T03:29:30.643Z,75.84
2017-05-14T03:32:00.428Z,72.64
2017-05-14T03:34:29.500Z,64.92
2017-05-14T03:36:58.536Z,68.94
2017-05-14T03:39:27.697Z,61.42
2017-05-14T03:41:56.737Z,66.72
2017-05-14T03:44:25.818Z,59.42
2017-05-14T03:46:55.641Z,62.96
2017-05-14T03:49:25.447Z,62.34
2017-05-14T03:51:55.246Z,64.94
2017-05-14T03:54:24.759Z,59.32
2017-05-14T03:56:54.581Z,62.14
2017-05-14T03:59:24.383Z,58.06
2017-05-14T04:01:54.240Z,61.70
2017-05-14T04:04:23.303Z,58.30
2017-05-14T04:06:53.217Z,59.42
2017-05-14T04:09:23.025Z,57.38
2017-05-14T04:11:52.830Z,57.90
2017-05-14T04:14:26.951Z,64.24
2017-05-14T04:16:59.147Z,64.44
2017-05-14T04:19:33.460Z,65.26
2017-05-14T04:22:03.293Z,64.08
2017-05-14T04:24:33.120Z,63.18
2017-05-14T04:27:02.193Z,61.08
2017-05-14T04:29:31.253Z,66.02
2017-05-14T04:32:00.307Z,67.54
2017-05-14T04:34:30.121Z,65.88
2017-05-14T04:36:59.945Z,66.30
2017-05-14T04:39:29.005Z,68.14
2017-05-14T04:41:58.061Z,69.38
2017-05-14T04:44:27.217Z,69.62
2017-05-14T04:46:57.021Z,68.00
2017-05-14T04:49:26.851Z,63.70
2017-05-14T04:51:55.933Z,68.54
2017-05-14T04:54:25.739Z,66.22
2017-05-14T04:56:54.801Z,67.82
2017-05-14T04:59:23.878Z,66.26
2017-05-14T05:01:52.942Z,68.34
2017-05-14T05:04:22.853Z,65.38
2017-05-14T05:06:52.757Z,65.60
2017-05-14T05:09:22.570Z,63.42
2017-05-14T05:11:52.403Z,65.80
2017-05-14T05:14:21.529Z,60.80
2017-05-14T05:16:51.346Z,60.28
2017-05-14T05:19:22.152Z,58.12
2017-05-14T05:21:51.273Z,65.02
2017-05-14T05:24:21.086Z,61.16
2017-05-14T05:26:50.878Z,61.52
2017-05-14T05:29:19.943Z,58.34
2017-05-14T05:31:49.093Z,58.20
2017-05-14T05:34:19.005Z,58.50
2017-05-14T05:36:48.813Z,58.42
2017-05-14T05:39:18.615Z,59.76
2017-05-14T05:41:47.661Z,56.10
2017-05-14T05:44:16.817Z,58.12
2017-05-14T05:46:46.618Z,60.40
2017-05-14T05:49:15.692Z,64.56
2017-05-14T05:51:44.836Z,59.20
2017-05-14T05:54:14.759Z,62.24
2017-05-14T05:56:43.815Z,57.14
2017-05-14T05:59:12.884Z,53.86
2017-05-14T06:01:41.949Z,53.54
2017-05-14T06:04:11.015Z,57.60
2017-05-14T06:06:40.134Z,54.66
2017-05-14T06:09:09.202Z,58.04
2017-05-14T06:11:38.309Z,56.86
2017-05-14T06:14:08.238Z,55.90
2017-05-14T06:16:38.042Z,54.02
2017-05-14T06:19:07.850Z,52.60
2017-05-14T06:21:37.663Z,52.06
2017-05-14T06:24:06.773Z,51.46
2017-05-14T06:26:35.876Z,53.38
2017-05-14T06:29:05.666Z,49.34
2017-05-14T06:31:35.498Z,49.92
2017-05-14T06:34:04.604Z,48.60
2017-05-14T06:36:33.673Z,49.36
2017-05-14T06:39:04.038Z,47.82
2017-05-14T06:41:33.107Z,49.56
2017-05-14T06:44:02.934Z,49.52
2017-05-14T06:46:31.998Z,46.60
2017-05-14T06:49:01.104Z,48.30
2017-05-14T06:51:30.928Z,47.42
2017-05-14T06:53:59.967Z,49.64
2017-05-14T06:56:29.113Z,48.42
2017-05-14T06:58:58.170Z,46.04
2017-05-14T07:01:27.228Z,45.26
2017-05-14T07:03:56.393Z,43.18
2017-05-14T07:06:26.308Z,39.80
2017-05-14T07:08:56.117Z,41.14
2017-05-14T07:11:25.203Z,40.26
2017-05-14T07:13:54.274Z,34.58
2017-05-14T07:16:23.409Z,38.64
2017-05-14T07:18:53.220Z,38.78
2017-05-14T07:21:23.034Z,37.38
2017-05-14T07:23:52.836Z,37.82
2017-05-14T07:26:21.889Z,38.02
2017-05-14T07:28:50.950Z,37.36
2017-05-14T07:31:20.046Z,36.70
2017-05-14T07:33:49.858Z,34.74
2017-05-14T07:36:18.986Z,31.84
2017-05-14T07:38:48.901Z,30.26
2017-05-14T07:41:18.721Z,29.08
2017-05-14T07:43:47.923Z,28.34
2017-05-14T07:46:17.017Z,28.86
2017-05-14T07:48:46.088Z,27.20
2017-05-14T07:51:15.138Z,28.18
2017-05-14T07:53:44.207Z,25.40
2017-05-14T07:56:13.302Z,26.98
2017-05-14T07:58:43.107Z,26.46
2017-05-14T08:01:12.893Z,25.58
2017-05-14T08:03:42.009Z,25.20
2017-05-14T08:06:11.793Z,21.70
2017-05-14T08:08:40.853Z,21.42
2017-05-14T08:11:09.912Z,21.60
2017-05-14T08:13:39.715Z,20.62
2017-05-14T08:16:08.814Z,18.42
2017-05-14T08:18:38.642Z,18.16
2017-05-14T08:21:07.702Z,17.60
2017-05-14T08:23:37.496Z,16.52
2017-05-14T08:26:06.625Z,14.90
2017-05-14T08:28:36.414Z,13.32
2017-05-14T08:31:05.474Z,14.58
2017-05-14T08:33:34.549Z,15.04
2017-05-14T08:36:03.613Z,12.52
2017-05-14T08:38:33.457Z,7.18
2017-05-14T08:41:02.512Z,8.08
2017-05-14T08:43:31.553Z,11.02
2017-05-14T08:46:00.747Z,10.62
2017-05-14T08:48:30.789Z,10.02
2017-05-14T08:51:00.353Z,9.70
2017-05-14T08:53:29.430Z,10.64
2017-05-14T08:55:59.341Z,9.00
2017-05-14T08:58:28.425Z,9.74
2017-05-14T09:00:57.487Z,9.38
2017-05-14T09:03:26.525Z,16.72
2017-05-14T09:05:58.834Z,9.46
2017-05-14T09:08:28.715Z,8.02
2017-05-14T09:10:57.828Z,9.36
2017-05-14T09:13:27.726Z,8.66
2017-05-14T09:15:56.800Z,8.68
2017-05-14T09:18:25.829Z,8.08
2017-05-14T09:20:55.627Z,7.52
2017-05-14T09:23:24.830Z,7.34
2017-05-14T09:25:53.982Z,6.60
2017-05-14T09:28:23.986Z,7.02
2017-05-14T09:30:53.035Z,6.76
2017-05-14T09:33:22.062Z,8.12
2017-05-14T09:35:51.808Z,7.78
2017-05-14T09:38:20.876Z,7.04
2017-05-14T09:40:50.054Z,6.92
2017-05-14T09:43:19.956Z,7.24
2017-05-14T09:45:49.061Z,7.84
2017-05-14T09:48:18.838Z,8.24
2017-05-14T09:50:47.877Z,7.62
2017-05-14T09:53:16.924Z,8.58
2017-05-14T09:55:46.064Z,9.70
2017-05-14T09:58:15.843Z,8.42
2017-05-14T10:00:44.905Z,9.38
2017-05-14T10:03:13.949Z,9.20
2017-05-14T10:05:43.767Z,9.50
2017-05-14T10:08:13.573Z,9.12
2017-05-14T10:10:43.381Z,9.40
2017-05-14T10:13:12.438Z,8.62
2017-05-14T10:15:41.607Z,7.88
2017-05-14T10:18:10.673Z,6.60
2017-05-14T10:20:39.737Z,5.70
2017-05-14T10:23:08.869Z,7.18
2017-05-14T10:25:37.910Z,8.38
2017-05-14T10:28:06.946Z,7.72
2017-05-14T10:30:35.996Z,9.16
2017-05-14T10:33:05.053Z,7.92
2017-05-14T10:35:34.899Z,7.90
2017-05-14T10:38:04.702Z,7.50
2017-05-14T10:40:33.764Z,8.12
2017-05-14T10:43:03.554Z,8.10
2017-05-14T10:45:32.683Z,8.04
2017-05-14T10:48:02.494Z,8.24
2017-05-14T10:50:32.307Z,9.76
2017-05-14T10:53:02.113Z,8.94
2017-05-14T10:55:31.208Z,9.66
2017-05-14T10:58:01.022Z,8.48
2017-05-14T11:00:30.118Z,8.60
2017-05-14T11:02:59.213Z,8.72
2017-05-14T11:05:28.327Z,8.38
2017-05-14T11:07:58.111Z,7.40
2017-05-14T11:10:27.221Z,7.98
2017-05-14T11:12:57.039Z,8.32
2017-05-14T11:15:26.077Z,8.50
2017-05-14T11:17:55.126Z,8.52
2017-05-14T11:20:24.169Z,8.04
2017-05-14T11:22:53.230Z,9.08
2017-05-14T11:25:23.021Z,8.36
2017-05-14T11:27:52.082Z,7.44
2017-05-14T11:30:21.223Z,6.32
2017-05-14T11:32:51.023Z,7.12
2017-05-14T11:35:20.126Z,6.40
2017-05-14T11:37:49.941Z,7.42
2017-05-14T11:40:19.748Z,5.72
2017-05-14T11:42:48.845Z,5.50
2017-05-14T11:45:18.638Z,4.90
2017-05-14T11:47:47.740Z,6.48
2017-05-14T11:50:16.850Z,5.70
2017-05-14T11:52:46.641Z,5.38
2017-05-14T11:55:15.727Z,5.88
2017-05-14T11:57:44.841Z,5.46
2017-05-14T12:00:13.887Z,6.38
2017-05-14T12:02:43.033Z,5.06
2017-05-14T12:05:12.073Z,4.52
2017-05-14T12:07:41.223Z,5.06
2017-05-14T12:10:10.306Z,4.80
2017-05-14T12:12:39.413Z,3.92
2017-05-14T12:15:08.524Z,3.42
2017-05-14T12:17:38.332Z,3.36
2017-05-14T12:20:08.109Z,2.66
2017-05-14T12:22:37.171Z,3.50
2017-05-14T12:25:06.235Z,2.94
2017-05-14T12:27:36.021Z,3.30
2017-05-14T12:30:05.062Z,3.82
2017-05-14T12:32:34.109Z,4.18
2017-05-14T12:35:03.540Z,4.02
2017-05-14T12:37:33.449Z,3.88
2017-05-14T12:40:02.549Z,4.06
2017-05-14T12:42:32.361Z,3.44
2017-05-14T12:45:02.134Z,3.16
2017-05-14T12:47:31.165Z,3.82
2017-05-14T12:50:00.970Z,3.58
2017-05-14T12:52:29.993Z,3.54
2017-05-14T12:54:59.175Z,3.80
2017-05-14T12:57:28.980Z,4.02
2017-05-14T12:59:58.024Z,3.62
2017-05-14T13:02:27.057Z,4.12
2017-05-14T13:04:56.101Z,3.68
2017-05-14T13:07:25.154Z,4.48
2017-05-14T13:09:54.276Z,4.78
2017-05-14T13:12:24.083Z,4.54
2017-05-14T13:14:53.882Z,4.56
2017-05-14T13:17:22.923Z,5.20
2017-05-14T13:19:52.105Z,4.58
2017-05-14T13:22:21.169Z,5.30
2017-05-14T13:24:50.251Z,5.88
2017-05-14T13:27:19.282Z,6.24
2017-05-14T13:29:49.074Z,7.14
2017-05-14T13:32:18.194Z,7.18
2017-05-14T13:34:48.013Z,7.74
2017-05-14T13:37:17.108Z,8.62
2017-05-14T13:39:46.916Z,10.36
2017-05-14T13:42:16.719Z,9.92
2017-05-14T13:44:45.793Z,11.18
2017-05-14T13:47:14.913Z,9.92
2017-05-14T13:49:44.750Z,9.34
2017-05-14T13:52:14.658Z,8.68
2017-05-14T13:54:44.472Z,9.66
2017-05-14T13:57:14.377Z,10.72
2017-05-14T13:59:44.181Z,9.90
2017-05-14T14:02:13.998Z,9.48
2017-05-14T14:04:43.795Z,10.28
2017-05-14T14:07:12.918Z,9.84
2017-05-14T14:09:42.725Z,9.14
2017-05-14T14:12:12.546Z,10.42
2017-05-14T14:14:42.334Z,11.34
2017-05-14T14:17:11.436Z,10.78
2017-05-14T14:19:40.546Z,10.66
2017-05-14T14:22:10.452Z,10.66
2017-05-14T14:24:40.255Z,11.02
2017-05-14T14:27:09.323Z,11.82
2017-05-14T14:29:38.367Z,11.96
2017-05-14T14:32:08.287Z,11.14
2017-05-14T14:34:38.094Z,10.24
2017-05-14T14:37:08.011Z,9.12
2017-05-14T14:39:37.794Z,9.02
2017-05-14T14:42:06.921Z,9.30
2017-05-14T14:44:36.714Z,8.30
2017-05-14T14:47:05.832Z,6.90
2017-05-14T14:49:35.633Z,7.28
2017-05-14T14:52:04.689Z,6.30
2017-05-14T14:54:33.721Z,6.24
2017-05-14T14:57:02.774Z,6.06
2017-05-14T14:59:31.823Z,6.14
2017-05-14T15:02:01.605Z,5.74
2017-05-14T15:04:30.637Z,5.50
2017-05-14T15:07:00.445Z,5.62
2017-05-14T15:09:30.255Z,4.68
2017-05-14T15:12:00.057Z,4.78
2017-05-14T15:14:29.102Z,4.26
2017-05-14T15:16:58.145Z,3.86
2017-05-14T15:19:27.242Z,4.10
2017-05-14T15:21:56.344Z,4.66
2017-05-14T15:24:26.122Z,4.16
2017-05-14T15:26:55.248Z,4.58
2017-05-14T15:29:25.066Z,4.94
2017-05-14T15:31:54.133Z,3.82
2017-05-14T15:34:23.193Z,4.60
2017-05-14T15:36:52.248Z,4.80
2017-05-14T15:39:21.345Z,4.08
2017-05-14T15:41:50.386Z,4.72
2017-05-14T15:44:19.539Z,5.00
2017-05-14T15:46:49.349Z,4.68
2017-05-14T15:49:18.460Z,4.20
2017-05-14T15:51:48.237Z,4.42
2017-05-14T15:54:17.315Z,3.34
2017-05-14T15:56:46.341Z,3.34
2017-05-14T15:59:15.402Z,4.02
2017-05-14T16:01:44.432Z,3.60
2017-05-14T16:04:13.493Z,4.10
2017-05-14T16:06:42.554Z,5.40
2017-05-14T16:09:11.629Z,5.60
2017-05-14T16:11:41.433Z,5.36
2017-05-14T16:14:10.489Z,5.98
2017-05-14T16:16:39.533Z,5.80
2017-05-14T16:19:09.309Z,5.80
2017-05-14T16:21:38.357Z,5.20
2017-05-14T16:24:07.421Z,5.96
2017-05-14T16:26:36.624Z,6.20
2017-05-14T16:29:05.649Z,5.90
2017-05-14T16:31:34.725Z,5.78
2017-05-14T16:34:03.890Z,5.38
2017-05-14T16:36:33.013Z,6.22
2017-05-14T16:39:02.050Z,5.66
2017-05-14T16:41:31.207Z,6.40
2017-05-14T16:44:00.236Z,5.70
2017-05-14T16:46:29.325Z,4.98
2017-05-14T16:48:58.397Z,4.44
2017-05-14T16:51:27.449Z,5.00
2017-05-14T16:53:56.490Z,9.52
2017-05-14T16:56:26.304Z,3.74
2017-05-14T16:58:56.078Z,4.46
2017-05-14T17:01:25.202Z,3.64
2017-05-14T17:03:54.310Z,3.52
2017-05-14T17:06:24.213Z,3.44
2017-05-14T17:08:53.308Z,3.92
2017-05-14T17:11:22.451Z,3.50
2017-05-14T17:13:51.585Z,3.64
2017-05-14T17:16:20.708Z,3.26
2017-05-14T17:18:49.773Z,3.48
2017-05-14T17:21:18.895Z,2.90
2017-05-14T17:23:47.940Z,3.10
2017-05-14T17:26:17.782Z,3.46
2017-05-14T17:28:46.901Z,3.24
2017-05-14T17:31:16.675Z,3.00
2017-05-14T17:33:45.729Z,2.94
2017-05-14T17:36:14.800Z,2.88
2017-05-14T17:38:43.845Z,2.68
2017-05-14T17:41:12.884Z,2.78
2017-05-14T17:43:41.933Z,2.90
2017-05-14T17:46:10.979Z,3.08
2017-05-14T17:48:40.027Z,3.10
2017-05-14T17:51:09.093Z,3.10
2017-05-14T17:53:39.049Z,3.20
2017-05-14T17:56:08.085Z,3.42
2017-05-14T17:58:37.130Z,2.90
2017-05-14T18:01:06.162Z,2.84
2017-05-14T18:03:35.269Z,3.12
2017-05-14T18:06:04.311Z,3.42
2017-05-14T18:08:33.531Z,3.48
2017-05-14T18:11:02.621Z,3.30
2017-05-14T18:13:31.899Z,3.32
2017-05-14T18:16:00.967Z,2.94
2017-05-14T18:18:30.753Z,3.50
2017-05-14T18:20:59.871Z,7.40
2017-05-14T18:23:29.667Z,8.50
2017-05-14T18:25:58.699Z,3.62
2017-05-14T18:28:27.763Z,3.90
2017-05-14T18:30:56.820Z,3.52
2017-05-14T18:33:25.871Z,3.58
2017-05-14T18:35:55.676Z,3.48
2017-05-14T18:38:25.496Z,2.96
2017-05-14T18:40:55.266Z,3.56
2017-05-14T18:43:24.402Z,3.50
2017-05-14T18:45:54.207Z,3.92
2017-05-14T18:48:23.983Z,3.80
2017-05-14T18:50:53.038Z,4.02
2017-05-14T18:53:22.063Z,4.10
2017-05-14T18:55:51.197Z,4.02
2017-05-14T18:58:20.306Z,4.50
2017-05-14T19:00:50.133Z,4.00
2017-05-14T19:03:19.897Z,4.38
2017-05-14T19:05:49.017Z,4.56
2017-05-14T19:08:18.053Z,6.78
2017-05-14T19:10:47.092Z,8.06
2017-05-14T19:13:16.191Z,6.32
2017-05-14T19:15:45.277Z,6.98
2017-05-14T19:18:14.407Z,7.56
2017-05-14T19:20:44.306Z,6.70
2017-05-14T19:23:13.330Z,8.86
2017-05-14T19:25:42.423Z,8.80
2017-05-14T19:28:11.539Z,7.98
2017-05-14T19:30:40.601Z,8.40
2017-05-14T19:33:09.665Z,8.42
2017-05-14T19:35:38.792Z,17.52
2017-05-14T19:38:07.869Z,15.48
2017-05-14T19:40:37.666Z,7.68
2017-05-14T19:43:06.697Z,9.68
2017-05-14T19:45:35.765Z,9.00
2017-05-14T19:48:05.585Z,8.30
2017-05-14T19:50:35.400Z,7.60
2017-05-14T19:53:05.232Z,7.80
2017-05-14T19:55:34.304Z,7.68
2017-05-14T19:58:04.081Z,8.20
2017-05-14T20:00:33.444Z,9.22
2017-05-14T20:03:02.516Z,8.40
2017-05-14T20:05:31.614Z,10.38
2017-05-14T20:08:00.666Z,10.64
2017-05-14T20:10:29.761Z,10.80
2017-05-14T20:12:59.549Z,14.02
2017-05-14T20:15:28.665Z,12.92
2017-05-14T20:17:58.465Z,12.02
2017-05-14T20:20:28.249Z,11.48
2017-05-14T20:22:57.306Z,14.12
2017-05-14T20:25:26.356Z,13.78
2017-05-14T20:27:55.413Z,14.10
2017-05-14T20:30:24.463Z,16.08
2017-05-14T20:32:53.575Z,14.04
2017-05-14T20:35:23.393Z,14.52
2017-05-14T20:37:53.403Z,13.70
2017-05-14T20:40:23.239Z,13.88
2017-05-14T20:42:52.316Z,13.54
2017-05-14T20:45:22.101Z,15.00
2017-05-14T20:47:51.164Z,14.84
2017-05-14T20:50:20.231Z,12.82
2017-05-14T20:52:49.308Z,15.74
2017-05-14T20:55:19.120Z,17.10
2017-05-14T20:57:48.934Z,18.26
2017-05-14T21:00:18.718Z,16.88
2017-05-14T21:02:47.788Z,14.44
2017-05-14T21:05:16.938Z,14.72
2017-05-14T21:07:46.844Z,17.94
2017-05-14T21:10:15.958Z,20.48
2017-05-14T21:12:45.870Z,20.16
2017-05-14T21:15:15.673Z,29.30
2017-05-14T21:17:45.499Z,33.60
2017-05-14T21:20:15.331Z,27.44
2017-05-14T21:22:44.477Z,22.32
2017-05-14T21:25:13.595Z,18.98
2017-05-14T21:27:43.507Z,18.62
2017-05-14T21:30:13.342Z,23.44
2017-05-14T21:32:42.417Z,22.92
2017-05-14T21:35:12.243Z,22.48
2017-05-14T21:37:42.038Z,21.04
2017-05-14T21:40:11.860Z,20.40
2017-05-14T21:42:41.665Z,18.56
2017-05-14T21:45:11.455Z,16.70
2017-05-14T21:47:40.522Z,18.80
2017-05-14T21:50:09.575Z,17.66
2017-05-14T21:52:39.466Z,19.36
2017-05-14T21:55:08.604Z,20.16
2017-05-14T21:57:37.671Z,20.00
2017-05-14T22:00:06.791Z,17.96
2017-05-14T22:02:35.873Z,18.84
2017-05-14T22:05:05.688Z,16.58
2017-05-14T22:07:35.555Z,15.74
2017-05-14T22:10:04.694Z,17.04
2017-05-14T22:12:34.530Z,17.10
2017-05-14T22:15:03.590Z,16.58
2017-05-14T22:17:33.628Z,16.02
2017-05-14T22:20:03.239Z,16.98
2017-05-14T22:22:33.151Z,16.82
2017-05-14T22:25:02.190Z,18.06
2017-05-14T22:27:31.293Z,18.24
2017-05-14T22:30:00.403Z,17.86
2017-05-14T22:32:30.194Z,18.34
2017-05-14T22:34:59.319Z,17.90
2017-05-14T22:37:29.223Z,18.48
2017-05-14T22:39:59.045Z,17.36
2017-05-14T22:42:28.951Z,18.02
2017-05-14T22:44:58.861Z,18.46
2017-05-14T22:47:27.965Z,16.34
2017-05-14T22:49:57.778Z,18.74
2017-05-14T22:52:27.587Z,19.28
2017-05-14T22:54:57.394Z,19.08
2017-05-14T22:57:26.490Z,18.70
2017-05-14T22:59:55.688Z,17.98
2017-05-14T23:02:24.753Z,18.94
2017-05-14T23:04:53.798Z,18.26
2017-05-14T23:07:23.704Z,16.36
2017-05-14T23:09:53.515Z,19.68
2017-05-14T23:12:23.326Z,18.50
2017-05-14T23:14:52.482Z,20.40
2017-05-14T23:17:21.645Z,20.52
2017-05-14T23:19:51.442Z,19.62
2017-05-14T23:22:20.541Z,19.06
2017-05-14T23:24:49.646Z,20.78
2017-05-14T23:27:18.729Z,21.52
2017-05-14T23:29:48.540Z,19.94
2017-05-14T23:32:18.357Z,19.44
2017-05-14T23:34:48.163Z,18.22
2017-05-14T23:37:17.987Z,20.10
2017-05-14T23:39:47.807Z,19.38
2017-05-14T23:42:16.863Z,21.88
2017-05-14T23:44:45.915Z,20.70
2017-05-14T23:47:15.095Z,19.70
2017-05-14T23:49:44.149Z,19.32
2017-05-14T23:52:13.316Z,19.84
2017-05-14T23:54:42.419Z,25.14
2017-05-14T23:57:12.221Z,20.30
2017-05-14T23:59:41.323Z,21.60
